createdAt,value
2019-01-09T00:01:09.831Z,4.30
2019-01-09T00:03:38.241Z,4.30
2019-01-09T00:06:06.740Z,4.30
2019-01-09T00:08:35.132Z,4.50
2019-01-09T00:11:03.645Z,4.40
2019-01-09T00:13:32.057Z,4.40
2019-01-09T00:16:00.555Z,4.50
2019-01-09T00:18:29.180Z,4.30
2019-01-09T00:20:57.695Z,4.40
2019-01-09T00:23:26.099Z,4.30
2019-01-09T00:25:54.509Z,4.30
2019-01-09T00:28:22.930Z,4.30
2019-01-09T00:30:51.372Z,4.30
2019-01-09T00:33:19.858Z,4.40
2019-01-09T00:35:48.363Z,4.30
2019-01-09T00:38:16.931Z,4.30
2019-01-09T00:40:45.398Z,4.30
2019-01-09T00:43:13.838Z,4.20
2019-01-09T00:45:42.240Z,4.30
2019-01-09T00:48:10.726Z,4.10
2019-01-09T00:50:39.141Z,4.10
2019-01-09T00:53:07.700Z,4.20
2019-01-09T00:55:36.257Z,4.00
2019-01-09T00:58:04.746Z,4.10
2019-01-09T01:00:33.226Z,4.20
2019-01-09T01:03:24.367Z,4.20
2019-01-09T01:06:04.916Z,4.20
2019-01-09T01:08:53.124Z,4.20
2019-01-09T01:12:07.381Z,4.10
2019-01-09T01:14:50.619Z,4.10
2019-01-09T01:17:27.931Z,4.10
2019-01-09T01:20:08.011Z,4.20
2019-01-09T01:22:55.787Z,4.40
2019-01-09T01:25:27.300Z,4.40
2019-01-09T01:28:23.909Z,4.20
2019-01-09T01:31:01.029Z,4.30
2019-01-09T01:33:44.489Z,4.30
2019-01-09T01:36:47.686Z,4.20
2019-01-09T01:39:34.374Z,4.20
2019-01-09T01:42:11.883Z,4.30
2019-01-09T01:44:55.186Z,4.20
2019-01-09T01:47:46.388Z,4.20
2019-01-09T01:50:29.782Z,4.10
2019-01-09T01:53:01.294Z,4.00
2019-01-09T01:55:32.811Z,3.90
2019-01-09T01:58:10.317Z,3.70
2019-01-09T02:00:44.738Z,3.50
2019-01-09T02:03:25.506Z,3.50
2019-01-09T02:06:03.717Z,3.60
2019-01-09T02:09:04.469Z,3.50
2019-01-09T02:11:38.616Z,3.50
2019-01-09T02:14:46.625Z,3.60
2019-01-09T02:17:18.108Z,3.60
2019-01-09T02:20:01.661Z,3.60
2019-01-09T02:22:51.431Z,3.50
2019-01-09T02:25:47.047Z,3.50
2019-01-09T02:28:19.481Z,3.50
2019-01-09T02:30:53.681Z,3.50
2019-01-09T02:33:22.116Z,3.50
2019-01-09T02:35:50.549Z,3.60
2019-01-09T02:38:18.977Z,3.60
2019-01-09T02:40:47.391Z,3.70
2019-01-09T02:43:15.815Z,3.80
2019-01-09T02:45:44.235Z,3.70
2019-01-09T02:48:12.660Z,3.80
2019-01-09T02:50:41.068Z,3.80
2019-01-09T02:53:09.489Z,3.70
2019-01-09T02:55:37.897Z,3.80
2019-01-09T02:58:06.917Z,3.80
2019-01-09T03:00:35.382Z,3.80
2019-01-09T03:03:03.806Z,3.90
2019-01-09T03:05:32.200Z,3.90
2019-01-09T03:08:00.652Z,3.90
2019-01-09T03:10:29.076Z,3.90
2019-01-09T03:12:57.506Z,3.90
2019-01-09T03:15:26.005Z,3.90
2019-01-09T03:17:54.419Z,4.00
2019-01-09T03:20:22.836Z,3.90
2019-01-09T03:22:51.233Z,4.00
2019-01-09T03:25:19.673Z,3.90
2019-01-09T03:27:48.107Z,3.90
2019-01-09T03:30:16.522Z,3.90
2019-01-09T03:32:44.967Z,3.90
2019-01-09T03:35:13.452Z,3.90
2019-01-09T03:37:41.916Z,3.90
2019-01-09T03:40:10.407Z,3.90
2019-01-09T03:42:39.096Z,3.90
2019-01-09T03:45:08.642Z,3.90
2019-01-09T03:47:37.062Z,3.90
2019-01-09T03:50:06.304Z,3.70
2019-01-09T03:52:34.741Z,3.70
2019-01-09T03:55:03.330Z,3.70
2019-01-09T03:57:31.731Z,3.50
2019-01-09T04:00:00.434Z,3.50
2019-01-09T04:02:29.031Z,3.50
2019-01-09T04:04:57.446Z,3.40
2019-01-09T04:07:25.883Z,3.50
2019-01-09T04:09:54.296Z,3.50
2019-01-09T04:12:22.799Z,3.50
2019-01-09T04:14:51.327Z,3.50
2019-01-09T04:17:19.735Z,3.40
2019-01-09T04:19:48.136Z,3.40
2019-01-09T04:22:16.547Z,3.40
2019-01-09T04:24:45.140Z,3.30
2019-01-09T04:27:13.561Z,3.20
2019-01-09T04:29:41.979Z,3.20
2019-01-09T04:32:10.368Z,3.20
2019-01-09T04:34:38.798Z,3.10
2019-01-09T04:37:07.269Z,3.00
2019-01-09T04:39:35.685Z,3.00
2019-01-09T04:42:04.089Z,3.00
2019-01-09T04:44:32.503Z,2.90
2019-01-09T04:47:00.956Z,2.80
2019-01-09T04:49:29.379Z,2.80
2019-01-09T04:51:57.860Z,2.90
2019-01-09T04:54:26.277Z,3.00
2019-01-09T04:56:54.683Z,3.00
2019-01-09T04:59:23.137Z,3.00
2019-01-09T05:01:51.546Z,3.00
2019-01-09T05:04:19.968Z,3.00
2019-01-09T05:06:48.392Z,3.00
2019-01-09T05:09:16.807Z,3.10
2019-01-09T05:11:45.224Z,3.20
2019-01-09T05:14:13.637Z,3.20
2019-01-09T05:16:42.055Z,3.20
2019-01-09T05:19:10.491Z,3.20
2019-01-09T05:21:38.900Z,3.30
2019-01-09T05:24:08.243Z,3.40
2019-01-09T05:26:36.641Z,3.40
2019-01-09T05:29:05.094Z,3.30
2019-01-09T05:31:33.511Z,3.30
2019-01-09T05:34:01.941Z,3.20
2019-01-09T05:36:30.348Z,3.10
2019-01-09T05:38:58.781Z,2.90
2019-01-09T05:41:27.208Z,3.00
2019-01-09T05:43:55.632Z,3.00
2019-01-09T05:46:24.063Z,3.00
2019-01-09T05:48:52.551Z,2.90
2019-01-09T05:51:20.965Z,2.90
2019-01-09T05:53:49.382Z,2.90
2019-01-09T05:56:17.827Z,3.00
2019-01-09T05:58:46.240Z,3.00
2019-01-09T06:01:14.645Z,2.90
2019-01-09T06:03:43.064Z,3.00
2019-01-09T06:06:11.515Z,3.00
2019-01-09T06:08:39.972Z,3.00
2019-01-09T06:11:08.398Z,2.90
2019-01-09T06:13:36.844Z,2.90
2019-01-09T06:16:05.255Z,2.90
2019-01-09T06:18:33.711Z,2.90
2019-01-09T06:21:02.133Z,2.90
2019-01-09T06:23:30.529Z,3.00
2019-01-09T06:25:59.032Z,3.00
2019-01-09T06:28:27.456Z,3.00
2019-01-09T06:30:55.885Z,2.90
2019-01-09T06:33:24.287Z,2.90
2019-01-09T06:35:52.725Z,2.90
2019-01-09T06:38:21.143Z,2.90
2019-01-09T06:40:49.539Z,2.90
2019-01-09T06:43:17.987Z,2.90
2019-01-09T06:45:46.420Z,2.80
2019-01-09T06:48:14.898Z,2.80
2019-01-09T06:50:43.326Z,2.80
2019-01-09T06:53:11.778Z,2.80
2019-01-09T06:55:40.230Z,2.90
2019-01-09T06:58:08.730Z,2.90
2019-01-09T07:00:37.132Z,3.00
2019-01-09T07:03:05.560Z,2.90
2019-01-09T07:05:33.956Z,2.90
2019-01-09T07:08:02.403Z,2.80
2019-01-09T07:10:30.811Z,2.90
2019-01-09T07:12:59.234Z,2.80
2019-01-09T07:15:27.627Z,2.90
2019-01-09T07:17:56.041Z,2.90
2019-01-09T07:20:24.483Z,2.90
2019-01-09T07:22:52.897Z,2.80
2019-01-09T07:25:21.390Z,2.80
2019-01-09T07:27:49.860Z,2.70
2019-01-09T07:30:18.323Z,2.70
2019-01-09T07:32:46.747Z,2.70
2019-01-09T07:35:15.150Z,2.70
2019-01-09T07:37:45.350Z,2.80
2019-01-09T07:40:13.727Z,2.90
2019-01-09T07:42:42.146Z,2.80
2019-01-09T07:45:10.685Z,2.90
2019-01-09T07:47:39.119Z,3.00
2019-01-09T07:50:08.566Z,3.10
2019-01-09T07:52:37.023Z,2.90
2019-01-09T07:55:06.509Z,2.70
2019-01-09T07:57:34.946Z,2.70
2019-01-09T08:00:04.268Z,2.40
2019-01-09T08:02:32.694Z,2.20
2019-01-09T08:05:01.268Z,2.00
2019-01-09T08:07:29.672Z,1.90
2019-01-09T08:09:58.124Z,1.90
2019-01-09T08:12:26.529Z,1.90
2019-01-09T08:14:54.966Z,1.90
2019-01-09T08:17:23.370Z,2.00
2019-01-09T08:19:51.798Z,2.10
2019-01-09T08:22:20.222Z,2.20
2019-01-09T08:24:48.646Z,2.10
2019-01-09T08:27:17.053Z,2.10
2019-01-09T08:29:45.480Z,2.20
2019-01-09T08:32:13.907Z,2.20
2019-01-09T08:34:42.315Z,2.20
2019-01-09T08:37:10.743Z,2.20
2019-01-09T08:39:39.169Z,2.30
2019-01-09T08:42:07.651Z,2.30
2019-01-09T08:44:36.075Z,2.30
2019-01-09T08:47:04.485Z,2.20
2019-01-09T08:49:32.907Z,2.30
2019-01-09T08:52:01.325Z,2.20
2019-01-09T08:54:29.737Z,2.10
2019-01-09T08:56:58.163Z,2.20
2019-01-09T08:59:26.563Z,2.20
2019-01-09T09:01:54.990Z,2.20
2019-01-09T09:04:23.426Z,2.20
2019-01-09T09:06:51.828Z,2.10
2019-01-09T09:09:20.588Z,2.10
2019-01-09T09:11:49.009Z,2.10
2019-01-09T09:14:17.423Z,2.00
2019-01-09T09:16:45.827Z,2.00
2019-01-09T09:19:15.825Z,2.00
2019-01-09T09:21:44.455Z,2.10
2019-01-09T09:24:13.834Z,2.10
2019-01-09T09:26:42.233Z,2.20
2019-01-09T09:29:10.672Z,2.30
2019-01-09T09:31:39.100Z,2.40
2019-01-09T09:34:07.543Z,2.30
2019-01-09T09:36:35.965Z,2.30
2019-01-09T09:39:07.582Z,2.30
2019-01-09T09:41:35.996Z,2.30
2019-01-09T09:44:04.565Z,2.40
2019-01-09T09:46:32.952Z,2.50
2019-01-09T09:49:01.403Z,2.70
2019-01-09T09:51:29.809Z,2.80
2019-01-09T09:53:58.204Z,2.90
2019-01-09T09:56:26.636Z,3.00
2019-01-09T09:58:55.052Z,3.10
2019-01-09T10:01:23.546Z,3.20
2019-01-09T10:03:51.971Z,3.20
2019-01-09T10:06:20.468Z,3.30
2019-01-09T10:08:48.890Z,3.30
2019-01-09T10:11:36.656Z,3.30
2019-01-09T10:14:05.063Z,3.30
2019-01-09T10:16:33.478Z,3.30
2019-01-09T10:19:01.921Z,3.50
2019-01-09T10:21:30.401Z,3.40
2019-01-09T10:23:58.814Z,3.50
2019-01-09T10:26:27.270Z,3.50
2019-01-09T10:28:55.695Z,3.50
2019-01-09T10:31:24.097Z,3.50
2019-01-09T10:33:52.521Z,3.40
2019-01-09T10:36:21.005Z,3.40
2019-01-09T10:38:49.426Z,3.40
2019-01-09T10:41:17.845Z,3.40
2019-01-09T10:43:46.261Z,3.40
2019-01-09T10:46:14.679Z,3.40
2019-01-09T10:48:43.089Z,3.50
2019-01-09T10:51:11.653Z,3.70
2019-01-09T10:53:40.041Z,3.70
2019-01-09T10:56:08.535Z,3.70
2019-01-09T10:58:37.019Z,3.70
2019-01-09T11:01:05.595Z,3.60
2019-01-09T11:03:33.990Z,3.60
2019-01-09T11:06:02.417Z,3.60
2019-01-09T11:08:30.827Z,3.50
2019-01-09T11:10:59.236Z,3.50
2019-01-09T11:13:27.646Z,3.50
2019-01-09T11:15:56.138Z,3.50
2019-01-09T11:18:24.555Z,3.60
2019-01-09T11:20:52.974Z,3.60
2019-01-09T11:23:21.399Z,3.60
2019-01-09T11:25:49.831Z,3.60
2019-01-09T11:28:18.249Z,3.30
2019-01-09T11:30:46.670Z,3.40
2019-01-09T11:33:15.087Z,3.20
2019-01-09T11:35:43.599Z,3.00
2019-01-09T11:38:12.005Z,2.80
2019-01-09T11:40:40.448Z,2.80
2019-01-09T11:43:08.878Z,2.70
2019-01-09T11:45:37.369Z,2.40
2019-01-09T11:48:05.792Z,2.30
2019-01-09T11:50:34.203Z,2.20
2019-01-09T11:53:02.625Z,2.20
2019-01-09T11:55:31.042Z,2.00
2019-01-09T11:57:59.471Z,1.90
2019-01-09T12:00:28.641Z,1.90
2019-01-09T12:02:57.185Z,1.90
2019-01-09T12:05:25.621Z,1.80
2019-01-09T12:07:54.166Z,1.80
2019-01-09T12:10:29.787Z,1.90
2019-01-09T12:12:55.057Z,1.90
2019-01-09T12:15:23.623Z,1.80
2019-01-09T12:17:52.038Z,1.70
2019-01-09T12:20:21.007Z,2.00
2019-01-09T12:22:49.915Z,2.00
2019-01-09T12:25:18.352Z,2.00
2019-01-09T12:27:46.796Z,2.10
2019-01-09T12:30:21.222Z,2.40
2019-01-09T12:32:49.634Z,2.50
2019-01-09T12:35:18.055Z,2.70
2019-01-09T12:37:46.501Z,2.90
2019-01-09T12:40:15.043Z,3.00
2019-01-09T12:42:43.582Z,3.20
2019-01-09T12:45:14.540Z,3.10
2019-01-09T12:47:42.972Z,3.30
2019-01-09T12:50:19.874Z,3.50
2019-01-09T12:52:48.289Z,3.60
2019-01-09T12:55:16.773Z,3.60
2019-01-09T12:57:45.215Z,3.50
2019-01-09T13:00:16.711Z,3.40
2019-01-09T13:02:45.190Z,3.40
2019-01-09T13:05:13.854Z,3.50
2019-01-09T13:07:42.260Z,3.60
2019-01-09T13:10:11.021Z,3.50
2019-01-09T13:12:39.503Z,3.60
2019-01-09T13:15:09.764Z,3.60
2019-01-09T13:17:38.183Z,3.60
2019-01-09T13:20:09.690Z,3.40
2019-01-09T13:22:38.202Z,3.40
2019-01-09T13:25:08.254Z,3.50
2019-01-09T13:27:36.672Z,3.60
2019-01-09T13:30:08.136Z,3.70
2019-01-09T13:32:36.536Z,3.90
2019-01-09T13:35:06.898Z,3.90
2019-01-09T13:37:35.346Z,3.90
2019-01-09T13:40:06.960Z,3.90
2019-01-09T13:42:35.401Z,3.80
2019-01-09T13:45:05.855Z,3.70
2019-01-09T13:47:34.287Z,3.60
2019-01-09T13:50:03.060Z,3.60
2019-01-09T13:52:31.467Z,3.50
2019-01-09T13:54:59.879Z,3.50
2019-01-09T13:57:28.313Z,3.50
2019-01-09T13:59:56.809Z,3.50
2019-01-09T14:02:25.268Z,3.40
2019-01-09T14:04:53.690Z,3.30
2019-01-09T14:07:22.132Z,3.30
2019-01-09T14:09:50.542Z,3.30
2019-01-09T14:12:18.957Z,3.20
2019-01-09T14:14:47.395Z,3.20
2019-01-09T14:17:15.808Z,3.30
2019-01-09T14:19:44.221Z,3.30
2019-01-09T14:22:12.632Z,3.30
2019-01-09T14:24:41.063Z,3.20
2019-01-09T14:27:09.662Z,3.20
2019-01-09T14:29:38.087Z,3.20
2019-01-09T14:32:07.413Z,3.30
2019-01-09T14:34:35.832Z,3.30
2019-01-09T14:37:04.306Z,3.30
2019-01-09T14:39:32.731Z,3.30
2019-01-09T14:42:01.161Z,3.50
2019-01-09T14:44:29.560Z,3.50
2019-01-09T14:46:57.997Z,3.50
2019-01-09T14:49:26.422Z,3.40
2019-01-09T14:51:54.828Z,3.20
2019-01-09T14:54:23.256Z,3.00
2019-01-09T14:56:51.682Z,2.40
2019-01-09T14:59:20.080Z,1.90
2019-01-09T15:01:48.526Z,1.50
2019-01-09T15:04:17.644Z,1.40
2019-01-09T15:06:46.359Z,1.20
2019-01-09T15:09:14.842Z,1.00
2019-01-09T15:11:43.271Z,1.00
2019-01-09T15:14:11.700Z,1.10
2019-01-09T15:16:40.136Z,1.10
2019-01-09T15:19:08.553Z,1.00
2019-01-09T15:21:36.968Z,1.00
2019-01-09T15:24:08.546Z,1.00
2019-01-09T15:26:37.429Z,1.00
2019-01-09T15:29:05.921Z,1.00
2019-01-09T15:31:34.349Z,1.10
2019-01-09T15:34:02.824Z,1.10
2019-01-09T15:36:31.254Z,1.10
2019-01-09T15:38:59.663Z,1.10
2019-01-09T15:41:28.087Z,1.10
2019-01-09T15:43:56.510Z,1.10
2019-01-09T15:46:24.957Z,1.20
2019-01-09T15:48:53.377Z,1.10
2019-01-09T15:51:21.790Z,1.10
2019-01-09T15:53:50.241Z,1.10
2019-01-09T15:56:18.652Z,1.10
2019-01-09T15:58:47.073Z,1.00
2019-01-09T16:01:15.555Z,1.00
2019-01-09T16:03:44.042Z,1.00
2019-01-09T16:06:12.458Z,1.00
2019-01-09T16:08:40.890Z,1.10
2019-01-09T16:11:09.385Z,1.20
2019-01-09T16:13:37.837Z,1.10
2019-01-09T16:16:06.234Z,1.20
2019-01-09T16:18:34.658Z,1.10
2019-01-09T16:21:03.142Z,1.20
2019-01-09T16:23:31.566Z,1.20
2019-01-09T16:25:59.993Z,1.20
2019-01-09T16:28:28.387Z,1.20
2019-01-09T16:30:59.890Z,1.20
2019-01-09T16:33:28.318Z,1.30
2019-01-09T16:35:56.750Z,1.30
2019-01-09T16:38:25.166Z,1.40
2019-01-09T16:40:53.594Z,1.30
2019-01-09T16:43:22.002Z,1.30
2019-01-09T16:45:50.550Z,1.40
2019-01-09T16:48:19.058Z,1.30
2019-01-09T16:50:47.495Z,1.30
2019-01-09T16:53:15.921Z,1.30
2019-01-09T16:55:44.324Z,1.40
2019-01-09T16:58:12.866Z,1.40
2019-01-09T17:00:43.426Z,1.40
2019-01-09T17:03:11.959Z,1.40
2019-01-09T17:05:40.394Z,1.40
2019-01-09T17:08:09.036Z,1.40
2019-01-09T17:10:37.449Z,1.30
2019-01-09T17:13:05.955Z,1.40
2019-01-09T17:15:34.348Z,1.30
2019-01-09T17:18:03.136Z,1.10
2019-01-09T17:20:32.363Z,0.90
2019-01-09T17:23:00.866Z,0.80
2019-01-09T17:25:29.293Z,0.80
2019-01-09T17:27:57.705Z,0.80
2019-01-09T17:30:28.711Z,0.80
2019-01-09T17:32:57.279Z,0.60
2019-01-09T17:35:25.712Z,0.70
2019-01-09T17:37:54.267Z,0.70
2019-01-09T17:40:23.922Z,0.70
2019-01-09T17:42:53.714Z,0.70
2019-01-09T17:45:22.142Z,0.70
2019-01-09T17:47:50.558Z,0.70
2019-01-09T17:50:30.609Z,0.70
2019-01-09T17:52:59.024Z,0.80
2019-01-09T17:55:27.431Z,0.80
2019-01-09T17:57:55.939Z,0.80
2019-01-09T18:00:30.152Z,0.90
2019-01-09T18:02:58.925Z,0.80
2019-01-09T18:05:27.444Z,0.90
2019-01-09T18:07:55.870Z,0.80
2019-01-09T18:10:26.303Z,0.90
2019-01-09T18:12:54.954Z,0.90
2019-01-09T18:15:24.387Z,0.80
2019-01-09T18:17:53.024Z,0.80
2019-01-09T18:20:24.458Z,0.80
2019-01-09T18:22:53.030Z,0.80
2019-01-09T18:25:26.804Z,0.90
2019-01-09T18:27:55.292Z,0.80
2019-01-09T18:30:35.496Z,0.80
2019-01-09T18:33:09.692Z,0.70
2019-01-09T18:35:56.578Z,0.70
2019-01-09T18:38:30.920Z,0.80
2019-01-09T18:41:24.432Z,0.80
2019-01-09T18:44:04.788Z,0.70
2019-01-09T18:46:51.644Z,0.70
2019-01-09T18:49:25.803Z,0.60
2019-01-09T18:52:03.061Z,0.60
2019-01-09T18:54:31.472Z,0.70
2019-01-09T18:56:59.983Z,0.60
2019-01-09T18:59:28.470Z,0.60
2019-01-09T19:01:56.897Z,0.60
2019-01-09T19:04:25.331Z,0.60
2019-01-09T19:06:53.731Z,0.60
2019-01-09T19:09:22.494Z,0.70
2019-01-09T19:11:50.979Z,0.70
2019-01-09T19:14:19.489Z,0.70
2019-01-09T19:16:47.962Z,0.70
2019-01-09T19:19:16.390Z,0.70
2019-01-09T19:21:45.078Z,0.80
2019-01-09T19:24:13.498Z,0.80
2019-01-09T19:26:41.942Z,0.90
2019-01-09T19:29:10.416Z,0.90
2019-01-09T19:31:38.914Z,0.90
2019-01-09T19:34:07.971Z,1.00
2019-01-09T19:36:36.434Z,0.90
2019-01-09T19:39:08.272Z,0.90
2019-01-09T19:41:36.850Z,0.80
2019-01-09T19:44:05.336Z,0.70
2019-01-09T19:46:33.761Z,0.80
2019-01-09T19:49:02.173Z,0.80
2019-01-09T19:51:30.747Z,0.90
2019-01-09T19:53:59.183Z,0.90
2019-01-09T19:56:27.689Z,1.00
2019-01-09T19:58:56.120Z,0.80
2019-01-09T20:01:24.603Z,1.00
2019-01-09T20:03:53.022Z,0.90
2019-01-09T20:06:21.425Z,0.90
2019-01-09T20:08:49.846Z,0.90
2019-01-09T20:11:26.341Z,0.80
2019-01-09T20:13:48.493Z,0.90
2019-01-09T20:16:17.040Z,0.90
2019-01-09T20:18:45.476Z,1.00
2019-01-09T20:21:13.957Z,0.90
2019-01-09T20:23:42.425Z,1.00
2019-01-09T20:26:10.892Z,1.00
2019-01-09T20:28:39.439Z,1.00
2019-01-09T20:31:08.189Z,1.00
2019-01-09T20:33:36.765Z,1.00
2019-01-09T20:36:05.283Z,1.00
2019-01-09T20:38:33.775Z,0.90
2019-01-09T20:41:02.260Z,1.00
2019-01-09T20:43:30.775Z,0.90
2019-01-09T20:45:59.206Z,1.00
2019-01-09T20:48:27.685Z,1.00
2019-01-09T20:50:56.116Z,0.80
2019-01-09T20:53:24.572Z,0.80
2019-01-09T20:55:53.316Z,0.70
2019-01-09T20:58:21.860Z,0.80
2019-01-09T21:00:50.541Z,0.80
2019-01-09T21:03:19.068Z,0.80
2019-01-09T21:05:47.604Z,0.80
2019-01-09T21:08:16.480Z,0.80
2019-01-09T21:10:44.945Z,0.70
2019-01-09T21:13:13.467Z,0.90
2019-01-09T21:15:42.075Z,0.80
2019-01-09T21:18:10.595Z,0.80
2019-01-09T21:20:39.030Z,0.70
2019-01-09T21:23:07.542Z,0.70
2019-01-09T21:25:36.299Z,0.70
2019-01-09T21:28:05.634Z,0.70
2019-01-09T21:30:34.392Z,0.60
2019-01-09T21:33:02.818Z,0.60
2019-01-09T21:35:31.249Z,0.60
2019-01-09T21:37:59.744Z,0.70
2019-01-09T21:40:29.609Z,0.70
2019-01-09T21:42:58.089Z,0.70
2019-01-09T21:45:26.508Z,0.60
2019-01-09T21:47:55.051Z,0.70
2019-01-09T21:50:24.514Z,0.70
2019-01-09T21:52:53.088Z,0.80
2019-01-09T21:55:21.728Z,0.80
2019-01-09T21:57:51.217Z,0.80
2019-01-09T22:00:24.774Z,0.80
2019-01-09T22:02:53.317Z,0.80
2019-01-09T22:05:22.384Z,0.80
2019-01-09T22:07:51.036Z,0.80
2019-01-09T22:10:24.684Z,0.80
2019-01-09T22:12:53.189Z,0.80
2019-01-09T22:15:22.166Z,0.70
2019-01-09T22:17:50.653Z,0.70
2019-01-09T22:20:19.155Z,0.70
2019-01-09T22:22:48.290Z,0.70
2019-01-09T22:25:16.947Z,0.70
2019-01-09T22:27:45.503Z,0.80
2019-01-09T22:30:16.980Z,0.80
2019-01-09T22:32:45.492Z,0.90
2019-01-09T22:35:13.907Z,0.90
2019-01-09T22:37:42.415Z,0.90
2019-01-09T22:40:16.301Z,0.90
2019-01-09T22:42:45.041Z,0.80
2019-01-09T22:45:14.507Z,0.80
2019-01-09T22:47:42.926Z,0.80
2019-01-09T22:50:17.089Z,0.80
2019-01-09T22:52:45.583Z,0.90
2019-01-09T22:55:14.143Z,0.90
2019-01-09T22:57:42.821Z,0.90
2019-01-09T23:00:40.349Z,0.90
2019-01-09T23:03:11.129Z,0.90
2019-01-09T23:05:39.755Z,0.80
2019-01-09T23:08:08.530Z,0.80
2019-01-09T23:10:37.220Z,0.80
2019-01-09T23:13:06.241Z,0.90
2019-01-09T23:15:34.735Z,0.90
2019-01-09T23:18:03.288Z,0.90
2019-01-09T23:20:31.730Z,0.80
2019-01-09T23:23:00.199Z,0.90
2019-01-09T23:25:28.643Z,0.90
2019-01-09T23:27:57.142Z,0.90
2019-01-09T23:30:25.773Z,0.90
2019-01-09T23:32:55.253Z,0.90
2019-01-09T23:35:23.806Z,0.90
2019-01-09T23:37:52.230Z,0.90
2019-01-09T23:40:20.995Z,1.00
2019-01-09T23:42:49.432Z,1.00
2019-01-09T23:45:17.917Z,1.00
2019-01-09T23:47:46.428Z,1.10
2019-01-09T23:50:14.992Z,1.10
2019-01-09T23:52:43.482Z,1.00
2019-01-09T23:55:12.541Z,1.00
2019-01-09T23:57:41.044Z,1.10
